createdAt,value
2023-08-16T00:01:23.560Z,8.43
2023-08-16T00:03:51.733Z,13.10
2023-08-16T00:06:19.161Z,11.27
2023-08-16T00:08:46.006Z,12.07
2023-08-16T00:11:12.775Z,11.37
2023-08-16T00:13:40.190Z,11.10
2023-08-16T00:16:06.984Z,11.87
2023-08-16T00:18:34.751Z,10.67
2023-08-16T00:21:01.781Z,8.97
2023-08-16T00:23:29.112Z,12.37
2023-08-16T00:25:57.793Z,12.77
2023-08-16T00:28:25.122Z,10.53
2023-08-16T00:30:55.397Z,10.33
2023-08-16T00:33:22.837Z,9.97
2023-08-16T00:35:52.715Z,10.23
2023-08-16T00:38:20.114Z,13.67
2023-08-16T00:40:50.742Z,7.93
2023-08-16T00:43:18.679Z,10.80
2023-08-16T00:45:47.192Z,10.27
2023-08-16T00:48:14.784Z,11.77
2023-08-16T00:50:42.292Z,10.47
2023-08-16T00:53:10.869Z,9.20
2023-08-16T00:55:38.234Z,9.33
2023-08-16T00:58:06.006Z,10.67
2023-08-16T01:00:33.592Z,9.67
2023-08-16T01:03:00.731Z,14.33
2023-08-16T01:05:28.395Z,12.97
2023-08-16T01:07:55.488Z,10.77
2023-08-16T01:10:30.060Z,14.03
2023-08-16T01:13:16.816Z,12.77
2023-08-16T01:15:47.801Z,12.17
2023-08-16T01:18:15.884Z,12.73
2023-08-16T01:20:45.367Z,11.70
2023-08-16T01:23:28.474Z,11.90
2023-08-16T01:26:12.250Z,14.63
2023-08-16T01:28:41.124Z,11.67
2023-08-16T01:31:08.479Z,11.07
2023-08-16T01:33:35.446Z,11.13
2023-08-16T01:36:02.570Z,13.20
2023-08-16T01:38:29.611Z,12.70
2023-08-16T01:41:04.892Z,11.13
2023-08-16T01:43:32.855Z,11.10
2023-08-16T01:46:01.374Z,14.67
2023-08-16T01:48:29.920Z,12.70
2023-08-16T01:50:57.026Z,12.90
2023-08-16T01:53:24.250Z,12.47
2023-08-16T01:55:51.179Z,11.73
2023-08-16T01:58:18.010Z,11.80
2023-08-16T02:00:45.045Z,13.27
2023-08-16T02:03:11.888Z,15.67
2023-08-16T02:05:38.840Z,13.93
2023-08-16T02:08:05.882Z,12.50
2023-08-16T02:10:32.709Z,12.13
2023-08-16T02:13:00.070Z,13.97
2023-08-16T02:15:27.390Z,15.00
2023-08-16T02:17:54.288Z,14.93
2023-08-16T02:20:21.432Z,12.97
2023-08-16T02:22:48.583Z,12.80
2023-08-16T02:25:15.845Z,14.00
2023-08-16T02:27:42.801Z,14.13
2023-08-16T02:30:10.780Z,14.63
2023-08-16T02:32:38.081Z,18.27
2023-08-16T02:35:05.138Z,12.60
2023-08-16T02:37:31.947Z,17.37
2023-08-16T02:39:59.526Z,17.03
2023-08-16T02:42:26.485Z,14.23
2023-08-16T02:44:53.333Z,14.17
2023-08-16T02:47:20.209Z,15.47
2023-08-16T02:49:47.315Z,17.20
2023-08-16T02:59:06.736Z,12.97
2023-08-16T03:01:35.351Z,15.43
2023-08-16T03:04:02.342Z,14.97
2023-08-16T03:06:29.600Z,15.47
2023-08-16T03:08:56.866Z,14.80
2023-08-16T03:11:23.662Z,17.70
2023-08-16T03:13:50.591Z,18.07
2023-08-16T03:16:17.444Z,17.10
2023-08-16T03:18:44.422Z,19.20
2023-08-16T03:21:11.672Z,18.97
2023-08-16T03:23:38.620Z,16.93
2023-08-16T03:26:05.754Z,17.97
2023-08-16T03:28:32.741Z,22.93
2023-08-16T03:30:59.665Z,16.37
2023-08-16T03:33:26.539Z,17.03
2023-08-16T03:35:53.534Z,14.73
2023-08-16T03:38:20.465Z,19.13
2023-08-16T03:40:47.360Z,17.67
2023-08-16T03:43:14.401Z,15.17
2023-08-16T03:45:41.432Z,19.83
2023-08-16T03:48:08.254Z,20.23
2023-08-16T03:50:35.465Z,18.80
2023-08-16T03:53:02.232Z,16.77
2023-08-16T03:55:29.116Z,18.93
2023-08-16T03:57:56.225Z,17.50
2023-08-16T04:00:23.212Z,15.67
2023-08-16T04:02:50.384Z,20.00
2023-08-16T04:05:17.652Z,15.73
2023-08-16T04:07:44.916Z,18.87
2023-08-16T04:10:12.706Z,17.27
2023-08-16T04:12:39.861Z,19.87
2023-08-16T04:15:07.309Z,18.97
2023-08-16T04:17:34.417Z,16.83
2023-08-16T04:20:01.523Z,18.30
2023-08-16T04:22:28.553Z,24.47
2023-08-16T04:24:55.463Z,16.10
2023-08-16T04:27:22.797Z,17.60
2023-08-16T04:29:50.173Z,16.90
2023-08-16T04:32:16.927Z,16.67
2023-08-16T04:34:44.110Z,18.00
2023-08-16T04:37:10.918Z,19.53
2023-08-16T04:39:37.846Z,19.47
2023-08-16T04:42:05.275Z,18.47
2023-08-16T04:44:32.073Z,24.93
2023-08-16T04:46:58.891Z,18.67
2023-08-16T04:49:28.178Z,20.27
2023-08-16T04:51:55.550Z,22.23
2023-08-16T04:54:23.028Z,18.87
2023-08-16T04:56:51.090Z,18.47
2023-08-16T04:59:18.257Z,20.33
2023-08-16T05:01:46.111Z,20.07
2023-08-16T05:04:13.065Z,19.27
2023-08-16T05:06:40.214Z,21.07
2023-08-16T05:09:07.392Z,24.10
2023-08-16T05:11:34.498Z,21.97
2023-08-16T05:14:01.320Z,22.87
2023-08-16T05:16:28.374Z,20.13
2023-08-16T05:18:58.542Z,20.10
2023-08-16T05:21:25.765Z,18.63
2023-08-16T05:23:53.129Z,21.33
2023-08-16T05:26:20.042Z,17.87
2023-08-16T05:28:46.787Z,20.43
2023-08-16T05:31:14.552Z,14.37
2023-08-16T05:33:41.606Z,16.40
2023-08-16T05:36:08.726Z,12.87
2023-08-16T05:38:35.971Z,19.00
2023-08-16T05:41:05.856Z,12.60
2023-08-16T05:43:33.332Z,12.93
2023-08-16T05:46:00.344Z,10.43
2023-08-16T05:48:27.141Z,11.63
2023-08-16T05:50:54.010Z,10.23
2023-08-16T05:53:20.953Z,10.43
2023-08-16T05:55:47.750Z,12.67
2023-08-16T05:58:14.480Z,11.77
2023-08-16T06:00:41.396Z,8.60
2023-08-16T06:03:08.270Z,9.93
2023-08-16T06:05:35.438Z,10.13
2023-08-16T06:08:02.677Z,8.03
2023-08-16T06:10:29.417Z,10.80
2023-08-16T06:12:56.535Z,8.00
2023-08-16T06:15:24.221Z,7.70
2023-08-16T06:17:51.218Z,10.20
2023-08-16T06:20:17.987Z,5.67
2023-08-16T06:22:45.047Z,7.73
2023-08-16T06:25:11.906Z,9.30
2023-08-16T06:27:38.748Z,9.43
2023-08-16T06:30:06.257Z,8.07
2023-08-16T06:32:33.370Z,15.53
2023-08-16T06:35:00.322Z,6.43
2023-08-16T06:37:27.385Z,8.17
2023-08-16T06:39:54.127Z,8.23
2023-08-16T06:42:20.924Z,10.02
2023-08-16T06:44:47.975Z,8.32
2023-08-16T06:47:15.046Z,4.68
2023-08-16T06:49:41.956Z,8.82
2023-08-16T06:52:08.860Z,9.93
2023-08-16T06:54:36.225Z,9.70
2023-08-16T06:57:03.023Z,5.75
2023-08-16T06:59:31.203Z,4.68
2023-08-16T07:01:57.979Z,6.78
2023-08-16T07:04:24.698Z,6.03
2023-08-16T07:06:51.694Z,7.10
2023-08-16T07:09:18.540Z,12.35
2023-08-16T07:11:45.578Z,8.70
2023-08-16T07:14:12.709Z,5.47
2023-08-16T07:16:41.056Z,4.50
2023-08-16T07:19:10.103Z,10.35
2023-08-16T07:21:37.134Z,3.08
2023-08-16T07:24:04.360Z,4.70
2023-08-16T07:26:31.072Z,3.72
2023-08-16T07:28:58.618Z,3.92
2023-08-16T07:31:25.432Z,6.85
2023-08-16T07:33:52.269Z,4.68
2023-08-16T07:36:19.286Z,8.00
2023-08-16T07:38:48.665Z,7.00
2023-08-16T07:41:16.913Z,4.03
2023-08-16T07:43:43.855Z,6.90
2023-08-16T07:46:10.778Z,6.72
2023-08-16T07:48:37.619Z,9.75
2023-08-16T07:51:04.877Z,6.00
2023-08-16T07:53:31.675Z,9.23
2023-08-16T07:55:58.569Z,5.28
2023-08-16T07:58:25.568Z,8.90
2023-08-16T08:00:55.825Z,7.03
2023-08-16T08:03:23.432Z,5.43
2023-08-16T08:05:50.558Z,5.38
2023-08-16T08:08:17.509Z,5.38
2023-08-16T08:10:46.104Z,6.57
2023-08-16T08:13:13.070Z,4.78
2023-08-16T08:15:39.874Z,4.30
2023-08-16T08:18:06.819Z,4.53
2023-08-16T08:20:33.921Z,3.80
2023-08-16T08:23:00.783Z,7.03
2023-08-16T08:25:27.744Z,4.75
2023-08-16T08:27:54.724Z,6.07
2023-08-16T08:30:21.490Z,4.35
2023-08-16T08:32:48.272Z,6.38
2023-08-16T08:35:15.324Z,6.82
2023-08-16T08:37:42.111Z,5.50
2023-08-16T08:40:09.120Z,4.55
2023-08-16T08:42:37.080Z,3.60
2023-08-16T08:45:06.190Z,3.72
2023-08-16T08:47:33.403Z,4.47
2023-08-16T08:50:03.425Z,7.57
2023-08-16T08:52:31.149Z,4.97
2023-08-16T08:54:59.749Z,6.45
2023-08-16T08:57:29.942Z,6.90
2023-08-16T08:59:59.638Z,5.07
2023-08-16T09:02:31.028Z,5.88
2023-08-16T09:05:02.012Z,5.00
2023-08-16T09:07:29.129Z,6.75
2023-08-16T09:09:56.927Z,4.93
2023-08-16T09:12:23.953Z,3.97
2023-08-16T09:14:51.164Z,4.70
2023-08-16T09:17:19.742Z,3.72
2023-08-16T09:19:47.261Z,6.88
2023-08-16T09:22:14.552Z,4.30
2023-08-16T09:24:44.843Z,5.53
2023-08-16T09:27:12.157Z,6.60
2023-08-16T09:29:41.975Z,4.68
2023-08-16T09:32:16.927Z,4.72
2023-08-16T09:34:55.885Z,4.60
2023-08-16T09:37:24.969Z,5.85
2023-08-16T09:39:58.754Z,5.20
2023-08-16T09:42:33.633Z,4.55
2023-08-16T09:45:00.988Z,4.32
2023-08-16T09:50:07.385Z,4.65
2023-08-16T09:52:36.200Z,3.88
2023-08-16T09:55:03.811Z,4.03
2023-08-16T09:57:31.969Z,6.78
2023-08-16T09:59:58.992Z,4.85
2023-08-16T10:05:00.717Z,4.22
2023-08-16T10:07:28.693Z,6.65
2023-08-16T10:09:56.449Z,6.82
2023-08-16T10:12:24.972Z,4.43
2023-08-16T10:14:52.267Z,6.72
2023-08-16T10:17:22.569Z,3.35
2023-08-16T10:19:51.678Z,3.25
2023-08-16T10:24:56.844Z,4.95
2023-08-16T10:27:25.729Z,7.03
2023-08-16T10:30:07.337Z,6.50
2023-08-16T10:32:37.545Z,4.30
2023-08-16T10:35:07.024Z,3.78
2023-08-16T10:37:39.801Z,4.55
2023-08-16T10:40:26.683Z,3.55
2023-08-16T10:43:01.239Z,4.93
2023-08-16T10:48:13.316Z,5.32
2023-08-16T10:50:41.191Z,5.00
2023-08-16T10:53:08.777Z,5.95
2023-08-16T10:55:36.294Z,4.68
2023-08-16T10:58:03.663Z,3.60
2023-08-16T11:00:37.132Z,3.45
2023-08-16T11:03:05.930Z,4.05
2023-08-16T11:05:34.725Z,3.22
2023-08-16T11:08:02.523Z,5.15
2023-08-16T11:10:37.046Z,6.03
2023-08-16T11:13:04.889Z,5.15
2023-08-16T11:15:33.045Z,6.78
2023-08-16T11:18:09.004Z,5.25
2023-08-16T11:20:37.942Z,5.68
2023-08-16T11:23:05.216Z,6.07
2023-08-16T11:25:36.277Z,8.02
2023-08-16T11:28:04.778Z,5.97
2023-08-16T11:30:34.838Z,4.10
2023-08-16T11:33:01.772Z,5.78
2023-08-16T11:35:28.898Z,6.53
2023-08-16T11:37:55.734Z,8.13
2023-08-16T11:40:25.754Z,4.80
2023-08-16T11:42:52.959Z,4.05
2023-08-16T11:45:22.526Z,3.78
2023-08-16T11:47:58.021Z,4.35
2023-08-16T11:50:27.890Z,4.25
2023-08-16T11:53:02.441Z,4.80
2023-08-16T11:55:32.283Z,9.23
2023-08-16T11:58:07.522Z,4.72
2023-08-16T12:00:35.271Z,3.17
2023-08-16T12:03:07.088Z,5.57
2023-08-16T12:05:40.989Z,4.45
2023-08-16T12:08:09.821Z,4.75
2023-08-16T12:10:37.378Z,7.28
2023-08-16T12:13:15.307Z,6.05
2023-08-16T12:15:43.193Z,4.35
2023-08-16T12:18:10.242Z,3.90
2023-08-16T12:20:37.503Z,6.03
2023-08-16T12:23:04.598Z,6.78
2023-08-16T12:25:31.621Z,5.85
2023-08-16T12:27:58.626Z,5.57
2023-08-16T12:30:25.876Z,5.78
2023-08-16T12:32:52.733Z,5.05
2023-08-16T12:35:20.200Z,5.10
2023-08-16T12:37:47.291Z,4.30
2023-08-16T12:40:14.381Z,6.43
2023-08-16T12:42:41.999Z,4.97
2023-08-16T12:45:11.073Z,8.38
2023-08-16T12:47:38.128Z,6.18
2023-08-16T12:50:06.173Z,6.90
2023-08-16T12:52:33.039Z,5.10
2023-08-16T12:54:59.981Z,7.65
2023-08-16T12:57:27.374Z,4.30
2023-08-16T12:59:54.516Z,6.95
2023-08-16T13:02:36.362Z,8.63
2023-08-16T13:05:11.119Z,6.05
2023-08-16T13:10:23.180Z,5.65
2023-08-16T13:18:21.201Z,7.35
2023-08-16T13:23:12.389Z,7.03
2023-08-16T13:28:19.200Z,7.05
2023-08-16T13:31:02.091Z,5.20
2023-08-16T13:33:43.354Z,6.43
2023-08-16T13:36:22.789Z,5.60
2023-08-16T13:38:50.984Z,11.45
2023-08-16T13:41:24.851Z,4.47
2023-08-16T13:44:17.641Z,5.05
2023-08-16T13:46:39.910Z,4.65
2023-08-16T13:49:06.992Z,6.38
2023-08-16T13:51:33.698Z,4.47
2023-08-16T13:54:00.975Z,6.65
2023-08-16T13:56:32.554Z,6.10
2023-08-16T13:59:03.104Z,5.57
2023-08-16T14:01:30.544Z,6.82
2023-08-16T14:03:58.505Z,4.22
2023-08-16T14:06:25.458Z,6.53
2023-08-16T14:08:52.286Z,5.18
2023-08-16T14:11:20.380Z,7.18
2023-08-16T14:13:47.831Z,6.32
2023-08-16T14:16:15.015Z,5.47
2023-08-16T14:18:43.689Z,5.30
2023-08-16T14:21:11.581Z,7.00
2023-08-16T14:23:38.385Z,7.18
2023-08-16T14:26:05.484Z,7.10
2023-08-16T14:28:33.207Z,4.43
2023-08-16T14:31:00.308Z,6.65
2023-08-16T14:33:27.308Z,4.25
2023-08-16T14:35:54.716Z,8.82
2023-08-16T14:38:21.639Z,6.07
2023-08-16T14:40:48.575Z,4.07
2023-08-16T14:43:15.532Z,4.72
2023-08-16T14:45:42.793Z,10.70
2023-08-16T14:48:09.742Z,5.30
2023-08-16T14:50:37.133Z,4.00
2023-08-16T14:53:04.414Z,5.90
2023-08-16T14:55:31.320Z,4.53
2023-08-16T14:58:07.578Z,5.65
2023-08-16T15:00:34.686Z,6.28
2023-08-16T15:03:02.545Z,5.18
2023-08-16T15:05:29.565Z,6.70
2023-08-16T15:07:56.524Z,7.53
2023-08-16T15:10:24.059Z,5.88
2023-08-16T15:12:50.932Z,13.07
2023-08-16T15:15:17.819Z,5.38
2023-08-16T15:17:44.843Z,8.35
2023-08-16T15:20:11.728Z,4.88
2023-08-16T15:22:38.978Z,4.68
2023-08-16T15:25:06.376Z,9.35
2023-08-16T15:27:33.107Z,6.88
2023-08-16T15:30:00.034Z,5.20
2023-08-16T15:32:27.682Z,4.20
2023-08-16T15:34:54.822Z,6.25
2023-08-16T15:37:21.591Z,4.22
2023-08-16T15:39:48.495Z,4.90
2023-08-16T15:42:15.246Z,5.07
2023-08-16T15:44:41.969Z,7.07
2023-08-16T15:47:08.845Z,4.05
2023-08-16T15:49:35.900Z,5.45
2023-08-16T15:52:04.548Z,8.57
2023-08-16T15:54:33.145Z,8.93
2023-08-16T15:56:59.890Z,4.20
2023-08-16T15:59:31.718Z,6.72
2023-08-16T16:02:09.847Z,6.40
2023-08-16T16:04:36.780Z,5.55
2023-08-16T16:07:03.572Z,4.15
2023-08-16T16:09:31.003Z,5.28
2023-08-16T16:11:57.736Z,3.05
2023-08-16T16:14:24.627Z,4.65
2023-08-16T16:16:51.541Z,4.22
2023-08-16T16:19:18.359Z,5.78
2023-08-16T16:21:45.444Z,4.75
2023-08-16T16:24:12.358Z,4.22
2023-08-16T16:26:39.537Z,4.00
2023-08-16T16:29:07.600Z,6.15
2023-08-16T16:31:34.663Z,4.07
2023-08-16T16:34:01.472Z,4.97
2023-08-16T16:36:28.527Z,4.97
2023-08-16T16:38:55.558Z,3.72
2023-08-16T16:41:23.335Z,5.38
2023-08-16T16:43:50.656Z,4.45
2023-08-16T16:46:17.606Z,3.17
2023-08-16T16:48:44.395Z,5.50
2023-08-16T16:51:11.517Z,6.88
2023-08-16T16:53:38.902Z,3.88
2023-08-16T16:56:05.949Z,4.55
2023-08-16T16:58:32.940Z,6.72
2023-08-16T17:00:59.797Z,3.15
2023-08-16T17:03:26.821Z,5.90
2023-08-16T17:05:53.755Z,6.32
2023-08-16T17:08:20.504Z,5.78
2023-08-16T17:10:47.324Z,4.30
2023-08-16T17:13:14.284Z,4.07
2023-08-16T17:15:41.082Z,4.40
2023-08-16T17:18:07.942Z,8.60
2023-08-16T17:20:34.981Z,6.15
2023-08-16T17:23:01.713Z,5.68
2023-08-16T17:25:28.909Z,4.38
2023-08-16T17:27:58.209Z,6.15
2023-08-16T17:30:25.459Z,7.25
2023-08-16T17:32:52.291Z,8.00
2023-08-16T17:35:19.533Z,8.25
2023-08-16T17:37:46.611Z,6.07
2023-08-16T17:40:13.361Z,7.03
2023-08-16T17:42:40.212Z,5.85
2023-08-16T17:45:07.901Z,4.93
2023-08-16T17:47:37.148Z,3.00
2023-08-16T17:50:05.943Z,4.53
2023-08-16T17:52:32.736Z,4.70
2023-08-16T17:55:00.649Z,4.88
2023-08-16T17:57:27.683Z,6.32
2023-08-16T17:59:54.905Z,3.50
2023-08-16T18:02:21.722Z,6.90
2023-08-16T18:04:52.639Z,3.83
2023-08-16T18:07:19.793Z,4.97
2023-08-16T18:09:46.578Z,5.25
2023-08-16T18:12:13.618Z,3.45
2023-08-16T18:14:40.507Z,4.60
2023-08-16T18:17:07.301Z,6.28
2023-08-16T18:19:34.953Z,4.88
2023-08-16T18:22:02.139Z,4.60
2023-08-16T18:24:30.586Z,4.25
2023-08-16T18:27:00.550Z,4.05
2023-08-16T18:29:27.559Z,7.93
2023-08-16T18:31:55.140Z,4.13
2023-08-16T18:34:22.173Z,2.83
2023-08-16T18:36:49.015Z,5.32
2023-08-16T18:39:16.096Z,4.50
2023-08-16T18:41:43.064Z,3.95
2023-08-16T18:44:09.985Z,8.05
2023-08-16T18:46:36.737Z,5.13
2023-08-16T18:49:03.870Z,4.75
2023-08-16T18:51:30.805Z,3.17
2023-08-16T18:53:57.606Z,4.77
2023-08-16T18:56:24.584Z,6.07
2023-08-16T18:58:51.502Z,6.25
2023-08-16T19:01:19.034Z,3.47
2023-08-16T19:03:46.838Z,3.70
2023-08-16T19:06:13.669Z,5.55
2023-08-16T19:08:42.117Z,3.17
2023-08-16T19:11:10.087Z,4.53
2023-08-16T19:13:39.196Z,4.75
2023-08-16T19:16:05.973Z,4.22
2023-08-16T19:18:33.289Z,6.27
2023-08-16T19:21:00.181Z,4.38
2023-08-16T19:23:27.301Z,4.28
2023-08-16T19:25:55.581Z,6.85
2023-08-16T19:28:22.433Z,4.70
2023-08-16T19:30:53.061Z,2.92
2023-08-16T19:33:20.008Z,6.47
2023-08-16T19:35:50.171Z,4.60
2023-08-16T19:38:17.554Z,4.13
2023-08-16T19:40:44.714Z,10.30
2023-08-16T19:43:11.677Z,5.40
2023-08-16T19:45:38.515Z,5.83
2023-08-16T19:48:06.047Z,4.27
2023-08-16T19:50:33.023Z,5.53
2023-08-16T19:52:59.870Z,5.45
2023-08-16T19:55:27.035Z,5.70
2023-08-16T19:57:54.200Z,4.87
2023-08-16T20:00:21.807Z,5.90
2023-08-16T20:02:50.099Z,8.10
2023-08-16T20:05:17.206Z,6.10
2023-08-16T20:07:44.176Z,7.88
2023-08-16T20:10:14.693Z,6.43
2023-08-16T20:12:42.238Z,5.50
2023-08-16T20:15:09.994Z,4.93
2023-08-16T20:17:37.007Z,5.87
2023-08-16T20:20:04.777Z,5.17
2023-08-16T20:22:35.605Z,4.10
2023-08-16T20:25:02.932Z,5.80
2023-08-16T20:27:29.733Z,7.07
2023-08-16T20:29:56.504Z,5.97
2023-08-16T20:32:23.829Z,6.27
2023-08-16T20:34:53.045Z,4.60
2023-08-16T20:37:21.238Z,5.50
2023-08-16T20:39:49.066Z,7.53
2023-08-16T20:42:32.284Z,7.03
2023-08-16T20:44:59.883Z,5.00
2023-08-16T20:47:27.045Z,5.67
2023-08-16T20:49:55.691Z,10.97
2023-08-16T20:52:23.733Z,7.57
2023-08-16T20:54:52.483Z,3.97
2023-08-16T20:57:20.148Z,5.47
2023-08-16T20:59:48.380Z,3.30
2023-08-16T21:02:16.552Z,5.23
2023-08-16T21:04:43.651Z,7.53
2023-08-16T21:07:10.764Z,5.33
2023-08-16T21:09:37.691Z,5.60
2023-08-16T21:12:05.111Z,3.50
2023-08-16T21:14:32.121Z,5.03
2023-08-16T21:16:59.606Z,4.43
2023-08-16T21:19:26.615Z,4.20
2023-08-16T21:21:53.834Z,5.13
2023-08-16T21:24:20.987Z,7.03
2023-08-16T21:26:47.747Z,5.83
2023-08-16T21:29:15.097Z,4.97
2023-08-16T21:31:42.495Z,4.03
2023-08-16T21:34:10.965Z,5.10
2023-08-16T21:36:46.607Z,8.60
2023-08-16T21:39:13.633Z,6.23
2023-08-16T21:41:42.076Z,5.37
2023-08-16T21:44:09.436Z,4.20
2023-08-16T21:46:36.687Z,3.90
2023-08-16T21:49:05.744Z,4.17
2023-08-16T21:51:35.767Z,3.90
2023-08-16T21:54:03.365Z,5.53
2023-08-16T21:56:32.960Z,5.80
2023-08-16T21:59:02.286Z,4.07
2023-08-16T22:01:29.136Z,5.43
2023-08-16T22:04:02.333Z,5.27
2023-08-16T22:06:30.997Z,6.70
2023-08-16T22:08:57.755Z,5.17
2023-08-16T22:11:24.833Z,4.30
2023-08-16T22:13:51.771Z,5.03
2023-08-16T22:16:21.509Z,6.17
2023-08-16T22:18:48.318Z,3.17
2023-08-16T22:21:15.270Z,4.90
2023-08-16T22:23:42.131Z,2.90
2023-08-16T22:26:09.408Z,6.20
2023-08-16T22:28:39.093Z,3.37
2023-08-16T22:31:05.870Z,5.07
2023-08-16T22:33:32.629Z,4.90
2023-08-16T22:35:59.638Z,3.77
2023-08-16T22:38:26.457Z,2.67
2023-08-16T22:40:53.257Z,6.20
2023-08-16T22:43:20.161Z,5.37
2023-08-16T22:45:47.061Z,5.03
2023-08-16T22:48:14.043Z,4.03
2023-08-16T22:50:40.796Z,3.47
2023-08-16T22:53:08.175Z,5.63
2023-08-16T22:55:35.012Z,4.00
2023-08-16T22:58:01.789Z,2.83
2023-08-16T23:00:28.756Z,3.83
2023-08-16T23:02:55.675Z,3.47
2023-08-16T23:05:22.471Z,5.27
2023-08-16T23:07:49.534Z,3.17
2023-08-16T23:10:16.667Z,3.90
2023-08-16T23:12:43.996Z,5.23
2023-08-16T23:15:11.264Z,4.90
2023-08-16T23:17:38.370Z,6.53
2023-08-16T23:20:07.431Z,4.83
2023-08-16T23:22:38.955Z,2.10
2023-08-16T23:25:07.921Z,6.33
2023-08-16T23:27:35.294Z,4.33
2023-08-16T23:30:03.344Z,5.47
2023-08-16T23:32:30.224Z,3.40
2023-08-16T23:34:57.344Z,4.43
2023-08-16T23:37:24.673Z,2.87
2023-08-16T23:39:51.712Z,4.27
2023-08-16T23:42:18.497Z,4.03
2023-08-16T23:44:45.424Z,7.43
2023-08-16T23:47:12.305Z,4.57
2023-08-16T23:49:39.349Z,4.90
2023-08-16T23:52:06.503Z,6.00
2023-08-16T23:54:34.832Z,5.50
2023-08-16T23:57:01.562Z,4.60
2023-08-16T23:59:28.501Z,3.63
